sensor_id;sensor_type;location;lat;lon;timestamp;P1;durP1;ratioP1;P2;durP2;ratioP2
21671;SDS011;10997;52.242;8.168;2022-07-29T00:02:29;4.38;;;1.73;;
21671;SDS011;10997;52.242;8.168;2022-07-29T00:07:31;3.65;;;1.58;;
21671;SDS011;10997;52.242;8.168;2022-07-29T00:12:32;4.70;;;1.50;;
21671;SDS011;10997;52.242;8.168;2022-07-29T00:17:33;9.95;;;1.80;;
21671;SDS011;10997;52.242;8.168;2022-07-29T00:22:36;6.65;;;1.90;;
21671;SDS011;10997;52.242;8.168;2022-07-29T00:27:38;6.07;;;2.17;;
21671;SDS011;10997;52.242;8.168;2022-07-29T00:32:39;6.55;;;1.60;;
21671;SDS011;10997;52.242;8.168;2022-07-29T00:37:40;3.28;;;1.52;;
21671;SDS011;10997;52.242;8.168;2022-07-29T00:42:41;4.50;;;1.80;;
21671;SDS011;10997;52.242;8.168;2022-07-29T00:47:46;6.03;;;1.80;;
21671;SDS011;10997;52.242;8.168;2022-07-29T00:52:46;4.43;;;1.85;;
21671;SDS011;10997;52.242;8.168;2022-07-29T00:57:47;4.55;;;1.75;;
21671;SDS011;10997;52.242;8.168;2022-07-29T01:02:49;4.10;;;1.90;;
21671;SDS011;10997;52.242;8.168;2022-07-29T01:07:52;4.60;;;1.80;;
21671;SDS011;10997;52.242;8.168;2022-07-29T01:12:54;5.25;;;1.88;;
21671;SDS011;10997;52.242;8.168;2022-07-29T01:34:05;3.88;;;1.75;;
21671;SDS011;10997;52.242;8.168;2022-07-29T01:39:13;3.00;;;1.80;;
21671;SDS011;10997;52.242;8.168;2022-07-29T01:44:22;4.72;;;2.00;;
21671;SDS011;10997;52.242;8.168;2022-07-29T01:49:31;3.83;;;1.80;;
21671;SDS011;10997;52.242;8.168;2022-07-29T01:54:40;4.60;;;1.80;;
21671;SDS011;10997;52.242;8.168;2022-07-29T01:59:43;4.78;;;1.80;;
21671;SDS011;10997;52.242;8.168;2022-07-29T02:04:46;6.95;;;2.00;;
21671;SDS011;10997;52.242;8.168;2022-07-29T02:09:49;3.85;;;1.77;;
21671;SDS011;10997;52.242;8.168;2022-07-29T02:14:52;3.10;;;1.60;;
21671;SDS011;10997;52.242;8.168;2022-07-29T02:19:56;4.00;;;1.77;;
21671;SDS011;10997;52.242;8.168;2022-07-29T02:24:59;6.03;;;1.90;;
21671;SDS011;10997;52.242;8.168;2022-07-29T02:30:02;4.72;;;1.77;;
21671;SDS011;10997;52.242;8.168;2022-07-29T02:35:04;6.32;;;1.73;;
21671;SDS011;10997;52.242;8.168;2022-07-29T02:40:05;7.22;;;1.90;;
21671;SDS011;10997;52.242;8.168;2022-07-29T02:45:10;7.00;;;1.83;;
21671;SDS011;10997;52.242;8.168;2022-07-29T02:50:20;3.40;;;1.60;;
21671;SDS011;10997;52.242;8.168;2022-07-29T02:55:36;5.22;;;1.70;;
21671;SDS011;10997;52.242;8.168;2022-07-29T03:00:41;2.75;;;1.60;;
21671;SDS011;10997;52.242;8.168;2022-07-29T03:05:44;3.25;;;1.60;;
21671;SDS011;10997;52.242;8.168;2022-07-29T03:10:44;6.95;;;1.65;;
21671;SDS011;10997;52.242;8.168;2022-07-29T03:15:47;5.47;;;1.80;;
21671;SDS011;10997;52.242;8.168;2022-07-29T03:20:48;3.45;;;1.75;;
21671;SDS011;10997;52.242;8.168;2022-07-29T03:25:49;5.70;;;1.80;;
21671;SDS011;10997;52.242;8.168;2022-07-29T03:30:50;6.00;;;2.33;;
21671;SDS011;10997;52.242;8.168;2022-07-29T03:35:51;5.30;;;1.80;;
21671;SDS011;10997;52.242;8.168;2022-07-29T03:40:59;4.53;;;1.80;;
21671;SDS011;10997;52.242;8.168;2022-07-29T03:46:03;6.38;;;1.92;;
21671;SDS011;10997;52.242;8.168;2022-07-29T03:51:07;4.45;;;2.00;;
21671;SDS011;10997;52.242;8.168;2022-07-29T03:56:08;3.53;;;1.60;;
21671;SDS011;10997;52.242;8.168;2022-07-29T04:01:14;7.90;;;2.10;;
21671;SDS011;10997;52.242;8.168;2022-07-29T04:06:17;5.85;;;1.70;;
21671;SDS011;10997;52.242;8.168;2022-07-29T04:11:18;4.95;;;1.77;;
21671;SDS011;10997;52.242;8.168;2022-07-29T04:16:19;7.57;;;1.80;;
21671;SDS011;10997;52.242;8.168;2022-07-29T04:21:19;6.00;;;1.88;;
21671;SDS011;10997;52.242;8.168;2022-07-29T04:26:20;2.53;;;1.75;;
21671;SDS011;10997;52.242;8.168;2022-07-29T04:31:21;3.10;;;1.90;;
21671;SDS011;10997;52.242;8.168;2022-07-29T04:36:21;4.57;;;1.65;;
21671;SDS011;10997;52.242;8.168;2022-07-29T04:41:22;4.82;;;1.80;;
21671;SDS011;10997;52.242;8.168;2022-07-29T04:46:23;5.40;;;2.00;;
21671;SDS011;10997;52.242;8.168;2022-07-29T04:51:23;6.47;;;2.10;;
21671;SDS011;10997;52.242;8.168;2022-07-29T04:56:24;6.18;;;1.60;;
21671;SDS011;10997;52.242;8.168;2022-07-29T05:01:25;5.43;;;2.03;;
21671;SDS011;10997;52.242;8.168;2022-07-29T05:06:25;5.07;;;1.85;;
21671;SDS011;10997;52.242;8.168;2022-07-29T05:11:26;3.78;;;1.75;;
21671;SDS011;10997;52.242;8.168;2022-07-29T05:16:27;6.78;;;2.00;;
21671;SDS011;10997;52.242;8.168;2022-07-29T05:21:27;2.88;;;1.67;;
21671;SDS011;10997;52.242;8.168;2022-07-29T05:26:28;4.80;;;1.65;;
21671;SDS011;10997;52.242;8.168;2022-07-29T05:31:29;4.18;;;1.90;;
21671;SDS011;10997;52.242;8.168;2022-07-29T05:36:29;4.93;;;1.70;;
21671;SDS011;10997;52.242;8.168;2022-07-29T05:41:33;5.03;;;1.83;;
21671;SDS011;10997;52.242;8.168;2022-07-29T05:46:33;4.13;;;1.63;;
21671;SDS011;10997;52.242;8.168;2022-07-29T05:51:34;9.20;;;1.73;;
21671;SDS011;10997;52.242;8.168;2022-07-29T05:56:35;5.18;;;1.92;;
21671;SDS011;10997;52.242;8.168;2022-07-29T06:01:36;6.40;;;1.75;;
21671;SDS011;10997;52.242;8.168;2022-07-29T06:06:39;4.20;;;1.67;;
21671;SDS011;10997;52.242;8.168;2022-07-29T06:11:40;6.40;;;1.67;;
21671;SDS011;10997;52.242;8.168;2022-07-29T06:16:41;5.13;;;1.88;;
21671;SDS011;10997;52.242;8.168;2022-07-29T06:21:42;7.30;;;2.00;;
21671;SDS011;10997;52.242;8.168;2022-07-29T06:26:43;4.53;;;1.90;;
21671;SDS011;10997;52.242;8.168;2022-07-29T06:31:44;6.80;;;1.92;;
21671;SDS011;10997;52.242;8.168;2022-07-29T06:36:45;3.53;;;1.70;;
21671;SDS011;10997;52.242;8.168;2022-07-29T06:41:46;3.88;;;1.63;;
21671;SDS011;10997;52.242;8.168;2022-07-29T06:46:51;5.73;;;2.10;;
21671;SDS011;10997;52.242;8.168;2022-07-29T06:51:53;9.68;;;2.47;;
21671;SDS011;10997;52.242;8.168;2022-07-29T06:56:54;7.75;;;2.60;;
21671;SDS011;10997;52.242;8.168;2022-07-29T07:01:55;6.32;;;1.70;;
21671;SDS011;10997;52.242;8.168;2022-07-29T07:06:56;5.18;;;1.80;;
21671;SDS011;10997;52.242;8.168;2022-07-29T07:11:56;3.88;;;1.80;;
21671;SDS011;10997;52.242;8.168;2022-07-29T07:16:57;7.20;;;1.75;;
21671;SDS011;10997;52.242;8.168;2022-07-29T07:22:00;7.97;;;1.63;;
21671;SDS011;10997;52.242;8.168;2022-07-29T07:27:00;4.20;;;1.67;;
21671;SDS011;10997;52.242;8.168;2022-07-29T07:32:01;3.58;;;1.60;;
21671;SDS011;10997;52.242;8.168;2022-07-29T07:37:02;6.63;;;1.70;;
21671;SDS011;10997;52.242;8.168;2022-07-29T07:42:03;6.65;;;2.20;;
21671;SDS011;10997;52.242;8.168;2022-07-29T07:47:03;4.97;;;2.10;;
21671;SDS011;10997;52.242;8.168;2022-07-29T07:52:04;4.22;;;2.22;;
21671;SDS011;10997;52.242;8.168;2022-07-29T07:57:05;4.63;;;1.52;;
21671;SDS011;10997;52.242;8.168;2022-07-29T08:02:06;4.35;;;1.55;;
21671;SDS011;10997;52.242;8.168;2022-07-29T08:07:07;4.03;;;1.67;;
21671;SDS011;10997;52.242;8.168;2022-07-29T08:12:08;5.20;;;1.80;;
21671;SDS011;10997;52.242;8.168;2022-07-29T08:17:09;6.72;;;3.00;;
21671;SDS011;10997;52.242;8.168;2022-07-29T08:22:10;5.22;;;1.60;;
21671;SDS011;10997;52.242;8.168;2022-07-29T08:27:10;5.95;;;1.92;;
21671;SDS011;10997;52.242;8.168;2022-07-29T08:32:12;2.53;;;1.50;;
21671;SDS011;10997;52.242;8.168;2022-07-29T08:37:12;4.07;;;1.67;;
21671;SDS011;10997;52.242;8.168;2022-07-29T08:42:13;5.10;;;1.60;;
21671;SDS011;10997;52.242;8.168;2022-07-29T08:47:16;5.78;;;1.67;;
21671;SDS011;10997;52.242;8.168;2022-07-29T08:52:17;5.60;;;1.70;;
21671;SDS011;10997;52.242;8.168;2022-07-29T08:57:19;5.72;;;1.80;;
21671;SDS011;10997;52.242;8.168;2022-07-29T09:02:21;6.10;;;1.80;;
21671;SDS011;10997;52.242;8.168;2022-07-29T09:07:23;6.93;;;1.75;;
21671;SDS011;10997;52.242;8.168;2022-07-29T09:12:24;6.95;;;1.90;;
21671;SDS011;10997;52.242;8.168;2022-07-29T09:17:41;6.38;;;1.90;;
21671;SDS011;10997;52.242;8.168;2022-07-29T09:22:47;7.47;;;1.85;;
21671;SDS011;10997;52.242;8.168;2022-07-29T09:27:53;6.35;;;1.90;;
21671;SDS011;10997;52.242;8.168;2022-07-29T09:32:54;6.22;;;1.70;;
21671;SDS011;10997;52.242;8.168;2022-07-29T09:38:09;6.00;;;1.67;;
21671;SDS011;10997;52.242;8.168;2022-07-29T09:43:11;5.43;;;1.55;;
21671;SDS011;10997;52.242;8.168;2022-07-29T09:48:16;3.50;;;1.85;;
21671;SDS011;10997;52.242;8.168;2022-07-29T09:53:32;4.93;;;2.10;;
21671;SDS011;10997;52.242;8.168;2022-07-29T09:58:34;5.07;;;1.60;;
21671;SDS011;10997;52.242;8.168;2022-07-29T10:03:53;5.75;;;2.08;;
21671;SDS011;10997;52.242;8.168;2022-07-29T10:08:54;7.07;;;1.73;;
21671;SDS011;10997;52.242;8.168;2022-07-29T10:14:09;8.57;;;1.90;;
21671;SDS011;10997;52.242;8.168;2022-07-29T10:19:10;9.27;;;2.00;;
21671;SDS011;10997;52.242;8.168;2022-07-29T10:24:12;5.00;;;1.73;;
21671;SDS011;10997;52.242;8.168;2022-07-29T10:29:13;5.80;;;2.00;;
21671;SDS011;10997;52.242;8.168;2022-07-29T10:34:17;3.70;;;1.70;;
21671;SDS011;10997;52.242;8.168;2022-07-29T10:45:29;6.90;;;1.70;;
21671;SDS011;10997;52.242;8.168;2022-07-29T10:50:51;7.65;;;2.10;;
21671;SDS011;10997;52.242;8.168;2022-07-29T10:55:54;5.93;;;1.80;;
21671;SDS011;10997;52.242;8.168;2022-07-29T11:00:55;8.20;;;2.17;;
21671;SDS011;10997;52.242;8.168;2022-07-29T11:05:56;6.53;;;1.90;;
21671;SDS011;10997;52.242;8.168;2022-07-29T11:16:19;6.00;;;2.15;;
21671;SDS011;10997;52.242;8.168;2022-07-29T11:21:34;9.38;;;2.25;;
21671;SDS011;10997;52.242;8.168;2022-07-29T11:26:36;6.93;;;2.08;;
21671;SDS011;10997;52.242;8.168;2022-07-29T11:31:38;8.48;;;1.90;;
21671;SDS011;10997;52.242;8.168;2022-07-29T11:47:20;6.60;;;2.13;;
21671;SDS011;10997;52.242;8.168;2022-07-29T11:52:22;6.75;;;2.03;;
21671;SDS011;10997;52.242;8.168;2022-07-29T11:57:34;5.93;;;1.92;;
21671;SDS011;10997;52.242;8.168;2022-07-29T12:02:42;5.72;;;1.95;;
21671;SDS011;10997;52.242;8.168;2022-07-29T12:07:43;5.82;;;2.00;;
21671;SDS011;10997;52.242;8.168;2022-07-29T12:12:44;8.60;;;2.10;;
21671;SDS011;10997;52.242;8.168;2022-07-29T12:17:52;6.85;;;2.28;;
21671;SDS011;10997;52.242;8.168;2022-07-29T12:22:53;7.18;;;1.95;;
21671;SDS011;10997;52.242;8.168;2022-07-29T12:27:58;8.30;;;2.22;;
21671;SDS011;10997;52.242;8.168;2022-07-29T12:38:00;6.72;;;2.20;;
21671;SDS011;10997;52.242;8.168;2022-07-29T12:43:08;6.20;;;2.30;;
21671;SDS011;10997;52.242;8.168;2022-07-29T12:48:10;12.45;;;2.30;;
21671;SDS011;10997;52.242;8.168;2022-07-29T12:53:12;6.63;;;2.50;;
21671;SDS011;10997;52.242;8.168;2022-07-29T12:58:36;10.13;;;2.72;;
21671;SDS011;10997;52.242;8.168;2022-07-29T13:03:54;9.07;;;2.60;;
21671;SDS011;10997;52.242;8.168;2022-07-29T13:14:29;13.50;;;2.70;;
21671;SDS011;10997;52.242;8.168;2022-07-29T13:24:59;4.40;;;2.38;;
21671;SDS011;10997;52.242;8.168;2022-07-29T13:30:03;9.07;;;2.80;;
21671;SDS011;10997;52.242;8.168;2022-07-29T13:35:06;5.60;;;2.50;;
21671;SDS011;10997;52.242;8.168;2022-07-29T13:40:08;5.07;;;2.30;;
21671;SDS011;10997;52.242;8.168;2022-07-29T13:45:10;9.48;;;2.55;;
21671;SDS011;10997;52.242;8.168;2022-07-29T13:50:11;6.53;;;2.83;;
21671;SDS011;10997;52.242;8.168;2022-07-29T13:55:11;8.48;;;2.53;;
21671;SDS011;10997;52.242;8.168;2022-07-29T14:00:12;8.82;;;2.50;;
21671;SDS011;10997;52.242;8.168;2022-07-29T14:05:14;6.97;;;2.10;;
21671;SDS011;10997;52.242;8.168;2022-07-29T14:10:15;9.70;;;2.47;;
21671;SDS011;10997;52.242;8.168;2022-07-29T14:15:16;7.18;;;2.55;;
21671;SDS011;10997;52.242;8.168;2022-07-29T14:20:17;8.40;;;2.60;;
21671;SDS011;10997;52.242;8.168;2022-07-29T14:25:18;6.28;;;2.50;;
21671;SDS011;10997;52.242;8.168;2022-07-29T14:30:18;7.90;;;2.33;;
21671;SDS011;10997;52.242;8.168;2022-07-29T14:35:20;13.70;;;2.65;;
21671;SDS011;10997;52.242;8.168;2022-07-29T14:40:20;9.98;;;2.20;;
21671;SDS011;10997;52.242;8.168;2022-07-29T14:45:21;6.57;;;2.50;;
21671;SDS011;10997;52.242;8.168;2022-07-29T14:50:22;9.27;;;2.30;;
21671;SDS011;10997;52.242;8.168;2022-07-29T14:55:23;6.43;;;2.35;;
21671;SDS011;10997;52.242;8.168;2022-07-29T15:00:24;5.30;;;2.53;;
21671;SDS011;10997;52.242;8.168;2022-07-29T15:05:27;7.25;;;2.70;;
21671;SDS011;10997;52.242;8.168;2022-07-29T15:10:30;11.07;;;3.57;;
21671;SDS011;10997;52.242;8.168;2022-07-29T15:15:31;13.43;;;3.83;;
21671;SDS011;10997;52.242;8.168;2022-07-29T15:20:31;8.13;;;2.67;;
21671;SDS011;10997;52.242;8.168;2022-07-29T15:25:32;11.57;;;3.67;;
21671;SDS011;10997;52.242;8.168;2022-07-29T15:30:36;8.25;;;3.10;;
21671;SDS011;10997;52.242;8.168;2022-07-29T15:35:40;7.60;;;2.90;;
21671;SDS011;10997;52.242;8.168;2022-07-29T15:40:41;8.95;;;3.08;;
21671;SDS011;10997;52.242;8.168;2022-07-29T15:45:43;13.40;;;3.50;;
21671;SDS011;10997;52.242;8.168;2022-07-29T15:51:04;11.13;;;3.38;;
21671;SDS011;10997;52.242;8.168;2022-07-29T15:56:04;8.50;;;3.60;;
21671;SDS011;10997;52.242;8.168;2022-07-29T16:01:05;9.27;;;3.20;;
21671;SDS011;10997;52.242;8.168;2022-07-29T16:06:06;10.27;;;3.42;;
21671;SDS011;10997;52.242;8.168;2022-07-29T16:11:06;7.55;;;3.10;;
21671;SDS011;10997;52.242;8.168;2022-07-29T16:16:07;7.43;;;3.25;;
21671;SDS011;10997;52.242;8.168;2022-07-29T16:21:08;6.28;;;3.08;;
21671;SDS011;10997;52.242;8.168;2022-07-29T16:26:09;4.78;;;2.88;;
21671;SDS011;10997;52.242;8.168;2022-07-29T16:31:10;7.65;;;3.20;;
21671;SDS011;10997;52.242;8.168;2022-07-29T16:36:10;7.80;;;3.25;;
21671;SDS011;10997;52.242;8.168;2022-07-29T16:41:11;7.95;;;3.30;;
21671;SDS011;10997;52.242;8.168;2022-07-29T16:46:13;5.25;;;2.75;;
21671;SDS011;10997;52.242;8.168;2022-07-29T16:51:13;10.43;;;3.22;;
21671;SDS011;10997;52.242;8.168;2022-07-29T16:56:17;6.72;;;3.00;;
21671;SDS011;10997;52.242;8.168;2022-07-29T17:01:18;4.70;;;2.47;;
21671;SDS011;10997;52.242;8.168;2022-07-29T17:06:18;8.13;;;3.40;;
21671;SDS011;10997;52.242;8.168;2022-07-29T17:11:19;6.50;;;2.80;;
21671;SDS011;10997;52.242;8.168;2022-07-29T17:16:20;9.38;;;3.80;;
21671;SDS011;10997;52.242;8.168;2022-07-29T17:21:23;7.88;;;3.20;;
21671;SDS011;10997;52.242;8.168;2022-07-29T17:26:24;6.38;;;3.08;;
21671;SDS011;10997;52.242;8.168;2022-07-29T17:31:26;11.50;;;3.67;;
21671;SDS011;10997;52.242;8.168;2022-07-29T17:36:28;6.65;;;2.78;;
21671;SDS011;10997;52.242;8.168;2022-07-29T17:41:29;5.25;;;3.00;;
21671;SDS011;10997;52.242;8.168;2022-07-29T17:46:30;8.57;;;3.28;;
21671;SDS011;10997;52.242;8.168;2022-07-29T17:51:30;6.65;;;2.60;;
21671;SDS011;10997;52.242;8.168;2022-07-29T17:56:31;11.23;;;2.80;;
21671;SDS011;10997;52.242;8.168;2022-07-29T18:01:32;8.00;;;2.70;;
21671;SDS011;10997;52.242;8.168;2022-07-29T18:06:33;5.65;;;2.65;;
21671;SDS011;10997;52.242;8.168;2022-07-29T18:11:34;8.00;;;3.00;;
21671;SDS011;10997;52.242;8.168;2022-07-29T18:16:34;8.38;;;3.00;;
21671;SDS011;10997;52.242;8.168;2022-07-29T18:21:37;8.88;;;2.90;;
21671;SDS011;10997;52.242;8.168;2022-07-29T18:26:37;5.10;;;2.70;;
21671;SDS011;10997;52.242;8.168;2022-07-29T18:31:38;9.57;;;3.22;;
21671;SDS011;10997;52.242;8.168;2022-07-29T18:36:39;7.93;;;3.30;;
21671;SDS011;10997;52.242;8.168;2022-07-29T18:41:40;7.28;;;3.30;;
21671;SDS011;10997;52.242;8.168;2022-07-29T18:46:42;6.38;;;3.17;;
21671;SDS011;10997;52.242;8.168;2022-07-29T18:51:43;7.97;;;3.20;;
21671;SDS011;10997;52.242;8.168;2022-07-29T18:56:44;6.47;;;3.05;;
21671;SDS011;10997;52.242;8.168;2022-07-29T19:01:46;10.13;;;3.25;;
21671;SDS011;10997;52.242;8.168;2022-07-29T19:06:47;6.72;;;3.08;;
21671;SDS011;10997;52.242;8.168;2022-07-29T19:11:48;8.63;;;3.63;;
21671;SDS011;10997;52.242;8.168;2022-07-29T19:16:49;6.13;;;3.25;;
21671;SDS011;10997;52.242;8.168;2022-07-29T19:21:49;6.38;;;3.03;;
21671;SDS011;10997;52.242;8.168;2022-07-29T19:26:50;6.22;;;3.17;;
21671;SDS011;10997;52.242;8.168;2022-07-29T19:31:51;7.70;;;3.30;;
21671;SDS011;10997;52.242;8.168;2022-07-29T19:36:52;8.00;;;3.22;;
21671;SDS011;10997;52.242;8.168;2022-07-29T19:41:53;10.50;;;4.03;;
21671;SDS011;10997;52.242;8.168;2022-07-29T19:46:55;6.47;;;3.42;;
21671;SDS011;10997;52.242;8.168;2022-07-29T19:51:55;6.78;;;3.50;;
21671;SDS011;10997;52.242;8.168;2022-07-29T19:56:56;9.40;;;3.92;;
21671;SDS011;10997;52.242;8.168;2022-07-29T20:01:57;8.32;;;3.70;;
21671;SDS011;10997;52.242;8.168;2022-07-29T20:06:58;9.18;;;3.58;;
21671;SDS011;10997;52.242;8.168;2022-07-29T20:12:00;10.45;;;4.00;;
21671;SDS011;10997;52.242;8.168;2022-07-29T20:17:00;9.40;;;3.90;;
21671;SDS011;10997;52.242;8.168;2022-07-29T20:22:01;6.00;;;3.55;;
21671;SDS011;10997;52.242;8.168;2022-07-29T20:27:02;12.57;;;4.65;;
21671;SDS011;10997;52.242;8.168;2022-07-29T20:32:03;9.20;;;4.68;;
21671;SDS011;10997;52.242;8.168;2022-07-29T20:37:04;6.15;;;4.50;;
21671;SDS011;10997;52.242;8.168;2022-07-29T20:42:04;9.55;;;4.70;;
21671;SDS011;10997;52.242;8.168;2022-07-29T20:47:06;8.18;;;5.20;;
21671;SDS011;10997;52.242;8.168;2022-07-29T20:52:07;9.40;;;4.97;;
21671;SDS011;10997;52.242;8.168;2022-07-29T20:57:07;11.65;;;5.13;;
21671;SDS011;10997;52.242;8.168;2022-07-29T21:02:08;9.40;;;5.32;;
21671;SDS011;10997;52.242;8.168;2022-07-29T21:07:09;10.45;;;5.30;;
21671;SDS011;10997;52.242;8.168;2022-07-29T21:12:10;9.48;;;5.22;;
21671;SDS011;10997;52.242;8.168;2022-07-29T21:17:13;12.63;;;5.80;;
21671;SDS011;10997;52.242;8.168;2022-07-29T21:22:14;11.80;;;6.00;;
21671;SDS011;10997;52.242;8.168;2022-07-29T21:27:15;13.02;;;6.45;;
21671;SDS011;10997;52.242;8.168;2022-07-29T21:32:35;10.52;;;6.43;;
21671;SDS011;10997;52.242;8.168;2022-07-29T21:37:36;9.07;;;6.38;;
21671;SDS011;10997;52.242;8.168;2022-07-29T21:42:37;12.48;;;7.40;;
21671;SDS011;10997;52.242;8.168;2022-07-29T21:47:38;15.05;;;7.55;;
21671;SDS011;10997;52.242;8.168;2022-07-29T21:52:38;14.38;;;7.65;;
21671;SDS011;10997;52.242;8.168;2022-07-29T21:57:39;10.85;;;7.65;;
21671;SDS011;10997;52.242;8.168;2022-07-29T22:02:40;10.40;;;8.10;;
21671;SDS011;10997;52.242;8.168;2022-07-29T22:07:42;9.20;;;7.50;;
21671;SDS011;10997;52.242;8.168;2022-07-29T22:12:43;10.90;;;7.72;;
21671;SDS011;10997;52.242;8.168;2022-07-29T22:17:44;11.60;;;8.25;;
21671;SDS011;10997;52.242;8.168;2022-07-29T22:22:44;11.75;;;8.10;;
21671;SDS011;10997;52.242;8.168;2022-07-29T22:27:49;12.35;;;8.48;;
21671;SDS011;10997;52.242;8.168;2022-07-29T22:32:49;11.05;;;8.20;;
21671;SDS011;10997;52.242;8.168;2022-07-29T22:37:50;10.25;;;7.97;;
21671;SDS011;10997;52.242;8.168;2022-07-29T22:42:52;10.73;;;8.68;;
21671;SDS011;10997;52.242;8.168;2022-07-29T22:47:52;12.50;;;8.18;;
21671;SDS011;10997;52.242;8.168;2022-07-29T22:52:53;11.25;;;8.63;;
21671;SDS011;10997;52.242;8.168;2022-07-29T22:57:54;11.02;;;8.82;;
21671;SDS011;10997;52.242;8.168;2022-07-29T23:02:54;9.98;;;8.85;;
21671;SDS011;10997;52.242;8.168;2022-07-29T23:07:55;11.90;;;9.02;;
21671;SDS011;10997;52.242;8.168;2022-07-29T23:12:56;13.88;;;9.45;;
21671;SDS011;10997;52.242;8.168;2022-07-29T23:17:56;13.27;;;9.48;;
21671;SDS011;10997;52.242;8.168;2022-07-29T23:22:57;10.88;;;9.50;;
21671;SDS011;10997;52.242;8.168;2022-07-29T23:27:59;12.65;;;9.88;;
21671;SDS011;10997;52.242;8.168;2022-07-29T23:33:00;13.90;;;9.80;;
21671;SDS011;10997;52.242;8.168;2022-07-29T23:38:01;12.50;;;10.10;;
21671;SDS011;10997;52.242;8.168;2022-07-29T23:43:02;12.43;;;9.27;;
21671;SDS011;10997;52.242;8.168;2022-07-29T23:48:02;14.70;;;10.57;;
21671;SDS011;10997;52.242;8.168;2022-07-29T23:53:03;13.10;;;10.00;;
21671;SDS011;10997;52.242;8.168;2022-07-29T23:58:04;16.38;;;10.27;;
